Calumet Park, IL (60827)

9:49 AM CST on February 11, 2016 (GMT -0600)
Thornton Junction | | Change Station
CLOSE
Current Station
Personal Weather Station
Location: South Holland, IL
Elevation: 614 ft
Nearby Weather Stations

Elev 614 ft 41.59 °N, 87.60 °W | Updated 7 seconds ago

Clear
Clear
18.9 °F
Feels Like 12 °F
N
5.0
Wind Variable Wind from North
Gusts 7.0 mph

Today
High -- | Low -- °F
--% Chance of Precip.
Yesterday
High -- | Low -- °F
Precip. -- in
Pressure 30.32 in
Visibility 10.0 miles
Clouds Clear
Windchill 12 °F
Dew Point 4 °F
Humidity 52%
Rainfall 0.00 in
Snow Depth Not available.
6:51 AM 5:18 PM
Waxing Crescent, 12% visible
METAR KIGQ 111535Z AUTO 32004KT 10SM CLR M09/M16 A3032 RMK AO2 T10911163
Pressure 30.32 in
Visibility 10.0 miles
Clouds Clear
Windchill 12 °F
Dew Point 4 °F
Humidity 52%
Rainfall 0.00 in
Snow Depth Not available.
6:51 AM 5:18 PM
Waxing Crescent, 12% visible
METAR KIGQ 111535Z AUTO 32004KT 10SM CLR M09/M16 A3032 RMK AO2 T10911163

10-Day Weather Forecast

Almanac

Astronomy

Feb. 11, 2016 Rise Set
Actual Time
Civil Twilight
Nautical Twilight
Astronomical Twilight
Moon
Length of Visible Light
Length of Day
Tomorrow will be .
, % of the Moon is Illuminated

Today's Extremes

State Highs State Lows

Community

WunderPhotos

Upload Photos

1,892,081 photos uploaded!

WunderBlog® & News

Nearby

Air Quality

  Air Quality AQ Index Pollutant
Not available.

Snow Depth

Station Depth Elevation

Earthquake Activity

City Distance Mag. Time & Date
Minimum magnitude displayed is 2.5.

Coastal Water Temperatures

Place Temperature

Stations

Nearby Weather Stations

Station Location Temp. Windchill Dew Point Humidity Wind Precip. Elev Updated Type
                   

Watches & Warnings

There are currently no watches in effect.